sensor_id;sensor_type;location;lat;lon;timestamp;P1;durP1;ratioP1;P2;durP2;ratioP2
30062;SDS011;16889;67.864;24.990;2023-07-30T00:03:29;3.78;;;3.10;;
30062;SDS011;16889;67.864;24.990;2023-07-30T00:08:15;7.75;;;3.08;;
30062;SDS011;16889;67.864;24.990;2023-07-30T00:13:01;5.43;;;3.15;;
30062;SDS011;16889;67.864;24.990;2023-07-30T00:17:47;4.35;;;3.33;;
30062;SDS011;16889;67.864;24.990;2023-07-30T00:22:33;4.97;;;3.30;;
30062;SDS011;16889;67.864;24.990;2023-07-30T00:27:19;4.43;;;3.35;;
30062;SDS011;16889;67.864;24.990;2023-07-30T00:32:05;6.03;;;3.33;;
30062;SDS011;16889;67.864;24.990;2023-07-30T00:36:51;5.13;;;3.50;;
30062;SDS011;16889;67.864;24.990;2023-07-30T00:41:37;5.20;;;3.95;;
30062;SDS011;16889;67.864;24.990;2023-07-30T00:46:23;5.20;;;3.80;;
30062;SDS011;16889;67.864;24.990;2023-07-30T00:51:10;6.40;;;3.97;;
30062;SDS011;16889;67.864;24.990;2023-07-30T00:55:58;5.43;;;4.00;;
30062;SDS011;16889;67.864;24.990;2023-07-30T01:00:44;6.53;;;4.25;;
30062;SDS011;16889;67.864;24.990;2023-07-30T01:05:31;11.45;;;4.10;;
30062;SDS011;16889;67.864;24.990;2023-07-30T01:10:17;5.63;;;4.53;;
30062;SDS011;16889;67.864;24.990;2023-07-30T01:15:04;7.22;;;4.72;;
30062;SDS011;16889;67.864;24.990;2023-07-30T01:19:52;6.43;;;4.60;;
30062;SDS011;16889;67.864;24.990;2023-07-30T01:24:40;5.50;;;4.60;;
30062;SDS011;16889;67.864;24.990;2023-07-30T01:30:10;6.43;;;4.65;;
30062;SDS011;16889;67.864;24.990;2023-07-30T01:34:40;4.88;;;4.40;;
30062;SDS011;16889;67.864;24.990;2023-07-30T01:39:29;5.45;;;4.43;;
30062;SDS011;16889;67.864;24.990;2023-07-30T01:44:16;4.70;;;4.28;;
30062;SDS011;16889;67.864;24.990;2023-07-30T01:49:02;4.88;;;4.25;;
30062;SDS011;16889;67.864;24.990;2023-07-30T01:53:48;5.88;;;4.60;;
30062;SDS011;16889;67.864;24.990;2023-07-30T01:58:34;7.10;;;4.68;;
30062;SDS011;16889;67.864;24.990;2023-07-30T02:03:20;5.78;;;4.63;;
30062;SDS011;16889;67.864;24.990;2023-07-30T02:08:06;5.50;;;4.38;;
30062;SDS011;16889;67.864;24.990;2023-07-30T02:12:52;5.63;;;4.40;;
30062;SDS011;16889;67.864;24.990;2023-07-30T02:17:38;5.40;;;4.40;;
30062;SDS011;16889;67.864;24.990;2023-07-30T02:22:24;5.38;;;4.15;;
30062;SDS011;16889;67.864;24.990;2023-07-30T02:27:10;4.82;;;3.92;;
30062;SDS011;16889;67.864;24.990;2023-07-30T02:31:55;5.53;;;4.00;;
30062;SDS011;16889;67.864;24.990;2023-07-30T02:36:41;4.90;;;4.10;;
30062;SDS011;16889;67.864;24.990;2023-07-30T02:41:27;4.68;;;4.28;;
30062;SDS011;16889;67.864;24.990;2023-07-30T02:46:13;4.88;;;4.40;;
30062;SDS011;16889;67.864;24.990;2023-07-30T02:50:59;5.13;;;4.13;;
30062;SDS011;16889;67.864;24.990;2023-07-30T02:55:45;5.45;;;4.38;;
30062;SDS011;16889;67.864;24.990;2023-07-30T03:00:31;6.32;;;4.57;;
30062;SDS011;16889;67.864;24.990;2023-07-30T03:05:17;7.38;;;4.55;;
30062;SDS011;16889;67.864;24.990;2023-07-30T03:10:03;7.28;;;4.47;;
30062;SDS011;16889;67.864;24.990;2023-07-30T03:14:49;6.18;;;4.90;;
30062;SDS011;16889;67.864;24.990;2023-07-30T03:19:35;7.18;;;5.10;;
30062;SDS011;16889;67.864;24.990;2023-07-30T03:24:21;6.07;;;4.35;;
30062;SDS011;16889;67.864;24.990;2023-07-30T03:29:07;6.50;;;4.80;;
30062;SDS011;16889;67.864;24.990;2023-07-30T03:33:53;6.03;;;4.53;;
30062;SDS011;16889;67.864;24.990;2023-07-30T03:38:39;7.03;;;4.47;;
30062;SDS011;16889;67.864;24.990;2023-07-30T03:43:26;7.88;;;5.18;;
30062;SDS011;16889;67.864;24.990;2023-07-30T03:48:12;6.88;;;4.57;;
30062;SDS011;16889;67.864;24.990;2023-07-30T03:52:58;7.72;;;4.38;;
30062;SDS011;16889;67.864;24.990;2023-07-30T03:57:44;5.50;;;4.40;;
30062;SDS011;16889;67.864;24.990;2023-07-30T04:02:30;5.53;;;3.97;;
30062;SDS011;16889;67.864;24.990;2023-07-30T04:07:16;7.38;;;3.67;;
30062;SDS011;16889;67.864;24.990;2023-07-30T04:12:02;6.25;;;3.97;;
30062;SDS011;16889;67.864;24.990;2023-07-30T04:16:48;4.32;;;3.58;;
30062;SDS011;16889;67.864;24.990;2023-07-30T04:21:34;9.75;;;4.00;;
30062;SDS011;16889;67.864;24.990;2023-07-30T04:26:20;4.15;;;3.70;;
30062;SDS011;16889;67.864;24.990;2023-07-30T04:31:06;5.20;;;3.40;;
30062;SDS011;16889;67.864;24.990;2023-07-30T04:35:52;5.57;;;3.42;;
30062;SDS011;16889;67.864;24.990;2023-07-30T04:40:38;9.88;;;3.80;;
30062;SDS011;16889;67.864;24.990;2023-07-30T04:45:24;5.57;;;3.03;;
30062;SDS011;16889;67.864;24.990;2023-07-30T04:50:10;5.15;;;3.45;;
30062;SDS011;16889;67.864;24.990;2023-07-30T04:54:56;6.00;;;3.10;;
30062;SDS011;16889;67.864;24.990;2023-07-30T04:59:42;7.05;;;3.60;;
30062;SDS011;16889;67.864;24.990;2023-07-30T05:04:28;5.00;;;3.20;;
30062;SDS011;16889;67.864;24.990;2023-07-30T05:09:14;5.60;;;3.33;;
30062;SDS011;16889;67.864;24.990;2023-07-30T05:14:00;5.80;;;3.17;;
30062;SDS011;16889;67.864;24.990;2023-07-30T05:18:45;6.68;;;3.55;;
30062;SDS011;16889;67.864;24.990;2023-07-30T05:23:32;6.13;;;3.15;;
30062;SDS011;16889;67.864;24.990;2023-07-30T05:28:18;5.55;;;3.10;;
30062;SDS011;16889;67.864;24.990;2023-07-30T05:33:04;4.70;;;3.17;;
30062;SDS011;16889;67.864;24.990;2023-07-30T05:37:50;3.67;;;3.00;;
30062;SDS011;16889;67.864;24.990;2023-07-30T05:42:36;5.80;;;2.90;;
30062;SDS011;16889;67.864;24.990;2023-07-30T05:47:22;6.47;;;3.03;;
30062;SDS011;16889;67.864;24.990;2023-07-30T05:52:08;7.88;;;2.22;;
30062;SDS011;16889;67.864;24.990;2023-07-30T05:56:54;4.57;;;2.20;;
30062;SDS011;16889;67.864;24.990;2023-07-30T06:01:40;3.67;;;2.25;;
30062;SDS011;16889;67.864;24.990;2023-07-30T06:06:26;3.65;;;2.25;;
30062;SDS011;16889;67.864;24.990;2023-07-30T06:11:12;5.80;;;2.10;;
30062;SDS011;16889;67.864;24.990;2023-07-30T06:15:58;6.25;;;2.20;;
30062;SDS011;16889;67.864;24.990;2023-07-30T06:20:44;7.32;;;2.58;;
30062;SDS011;16889;67.864;24.990;2023-07-30T06:25:30;4.55;;;2.10;;
30062;SDS011;16889;67.864;24.990;2023-07-30T06:30:16;4.63;;;2.13;;
30062;SDS011;16889;67.864;24.990;2023-07-30T06:35:02;4.05;;;2.10;;
30062;SDS011;16889;67.864;24.990;2023-07-30T06:39:49;4.13;;;2.33;;
30062;SDS011;16889;67.864;24.990;2023-07-30T06:44:35;5.45;;;2.00;;
30062;SDS011;16889;67.864;24.990;2023-07-30T06:49:21;6.93;;;2.10;;
30062;SDS011;16889;67.864;24.990;2023-07-30T06:54:06;3.83;;;2.00;;
30062;SDS011;16889;67.864;24.990;2023-07-30T06:58:53;4.30;;;1.60;;
30062;SDS011;16889;67.864;24.990;2023-07-30T07:03:38;4.10;;;1.60;;
30062;SDS011;16889;67.864;24.990;2023-07-30T07:08:24;6.18;;;1.90;;
30062;SDS011;16889;67.864;24.990;2023-07-30T07:13:12;2.97;;;1.73;;
30062;SDS011;16889;67.864;24.990;2023-07-30T07:18:01;4.60;;;1.77;;
30062;SDS011;16889;67.864;24.990;2023-07-30T07:22:47;5.10;;;1.25;;
30062;SDS011;16889;67.864;24.990;2023-07-30T07:27:33;3.03;;;1.30;;
30062;SDS011;16889;67.864;24.990;2023-07-30T07:32:19;3.33;;;1.50;;
30062;SDS011;16889;67.864;24.990;2023-07-30T07:37:05;6.40;;;1.35;;
30062;SDS011;16889;67.864;24.990;2023-07-30T07:41:51;6.53;;;1.45;;
30062;SDS011;16889;67.864;24.990;2023-07-30T07:46:37;4.05;;;1.10;;
30062;SDS011;16889;67.864;24.990;2023-07-30T07:51:23;4.32;;;1.42;;
30062;SDS011;16889;67.864;24.990;2023-07-30T07:56:09;3.20;;;1.35;;
30062;SDS011;16889;67.864;24.990;2023-07-30T08:00:55;6.03;;;1.40;;
30062;SDS011;16889;67.864;24.990;2023-07-30T08:05:41;2.05;;;1.30;;
30062;SDS011;16889;67.864;24.990;2023-07-30T08:10:27;4.90;;;1.42;;
30062;SDS011;16889;67.864;24.990;2023-07-30T08:15:13;2.95;;;1.60;;
30062;SDS011;16889;67.864;24.990;2023-07-30T08:19:59;5.20;;;1.60;;
30062;SDS011;16889;67.864;24.990;2023-07-30T08:24:44;4.13;;;1.60;;
30062;SDS011;16889;67.864;24.990;2023-07-30T08:29:30;2.92;;;1.60;;
30062;SDS011;16889;67.864;24.990;2023-07-30T08:34:16;2.63;;;1.40;;
30062;SDS011;16889;67.864;24.990;2023-07-30T08:39:03;3.30;;;1.30;;
30062;SDS011;16889;67.864;24.990;2023-07-30T08:43:49;3.60;;;1.75;;
30062;SDS011;16889;67.864;24.990;2023-07-30T08:48:37;2.28;;;1.42;;
30062;SDS011;16889;67.864;24.990;2023-07-30T08:53:26;3.42;;;1.25;;
30062;SDS011;16889;67.864;24.990;2023-07-30T08:58:12;2.35;;;1.20;;
30062;SDS011;16889;67.864;24.990;2023-07-30T09:03:03;2.90;;;1.23;;
30062;SDS011;16889;67.864;24.990;2023-07-30T09:07:49;5.95;;;1.40;;
30062;SDS011;16889;67.864;24.990;2023-07-30T09:12:35;4.88;;;1.50;;
30062;SDS011;16889;67.864;24.990;2023-07-30T09:17:22;3.17;;;1.50;;
30062;SDS011;16889;67.864;24.990;2023-07-30T09:22:08;4.18;;;1.55;;
30062;SDS011;16889;67.864;24.990;2023-07-30T09:26:54;4.55;;;1.70;;
30062;SDS011;16889;67.864;24.990;2023-07-30T09:31:46;3.80;;;1.73;;
30062;SDS011;16889;67.864;24.990;2023-07-30T09:36:33;6.20;;;1.80;;
30062;SDS011;16889;67.864;24.990;2023-07-30T09:41:21;5.97;;;1.80;;
30062;SDS011;16889;67.864;24.990;2023-07-30T09:46:07;2.03;;;1.50;;
30062;SDS011;16889;67.864;24.990;2023-07-30T09:50:53;3.92;;;1.50;;
30062;SDS011;16889;67.864;24.990;2023-07-30T09:55:40;2.40;;;1.40;;
30062;SDS011;16889;67.864;24.990;2023-07-30T10:00:25;1.85;;;1.33;;
30062;SDS011;16889;67.864;24.990;2023-07-30T10:05:15;8.85;;;1.50;;
30062;SDS011;16889;67.864;24.990;2023-07-30T10:10:03;6.85;;;1.50;;
30062;SDS011;16889;67.864;24.990;2023-07-30T10:14:50;5.03;;;1.30;;
30062;SDS011;16889;67.864;24.990;2023-07-30T10:19:36;2.85;;;1.40;;
30062;SDS011;16889;67.864;24.990;2023-07-30T10:24:22;3.17;;;1.48;;
30062;SDS011;16889;67.864;24.990;2023-07-30T10:34:06;4.80;;;1.77;;
30062;SDS011;16889;67.864;24.990;2023-07-30T10:38:53;2.65;;;1.65;;
30062;SDS011;16889;67.864;24.990;2023-07-30T10:43:40;4.60;;;1.80;;
30062;SDS011;16889;67.864;24.990;2023-07-30T10:48:34;1.92;;;1.70;;
30062;SDS011;16889;67.864;24.990;2023-07-30T10:53:25;3.10;;;1.80;;
30062;SDS011;16889;67.864;24.990;2023-07-30T10:58:11;2.10;;;1.52;;
30062;SDS011;16889;67.864;24.990;2023-07-30T11:02:58;3.47;;;1.88;;
30062;SDS011;16889;67.864;24.990;2023-07-30T11:07:51;3.03;;;1.70;;
30062;SDS011;16889;67.864;24.990;2023-07-30T11:12:37;2.38;;;1.70;;
30062;SDS011;16889;67.864;24.990;2023-07-30T11:17:23;5.18;;;1.60;;
30062;SDS011;16889;67.864;24.990;2023-07-30T11:22:11;3.20;;;1.45;;
30062;SDS011;16889;67.864;24.990;2023-07-30T11:26:57;2.65;;;1.52;;
30062;SDS011;16889;67.864;24.990;2023-07-30T11:31:47;1.80;;;1.40;;
30062;SDS011;16889;67.864;24.990;2023-07-30T11:36:33;1.70;;;1.20;;
30062;SDS011;16889;67.864;24.990;2023-07-30T11:41:19;1.98;;;1.30;;
30062;SDS011;16889;67.864;24.990;2023-07-30T11:46:13;2.60;;;1.00;;
30062;SDS011;16889;67.864;24.990;2023-07-30T11:51:01;1.77;;;1.10;;
30062;SDS011;16889;67.864;24.990;2023-07-30T11:55:47;2.65;;;1.38;;
30062;SDS011;16889;67.864;24.990;2023-07-30T12:00:33;2.75;;;1.20;;
30062;SDS011;16889;67.864;24.990;2023-07-30T12:05:20;2.20;;;1.20;;
30062;SDS011;16889;67.864;24.990;2023-07-30T12:10:20;1.85;;;1.27;;
30062;SDS011;16889;67.864;24.990;2023-07-30T12:15:12;4.55;;;1.30;;
30062;SDS011;16889;67.864;24.990;2023-07-30T12:20:00;3.53;;;1.40;;
30062;SDS011;16889;67.864;24.990;2023-07-30T12:24:51;2.50;;;1.42;;
30062;SDS011;16889;67.864;24.990;2023-07-30T12:29:37;2.65;;;1.55;;
30062;SDS011;16889;67.864;24.990;2023-07-30T12:34:23;3.95;;;1.10;;
30062;SDS011;16889;67.864;24.990;2023-07-30T12:39:09;2.13;;;1.27;;
30062;SDS011;16889;67.864;24.990;2023-07-30T12:43:55;3.30;;;1.00;;
30062;SDS011;16889;67.864;24.990;2023-07-30T12:48:42;2.83;;;1.02;;
30062;SDS011;16889;67.864;24.990;2023-07-30T12:53:28;5.05;;;1.00;;
30062;SDS011;16889;67.864;24.990;2023-07-30T12:58:14;1.08;;;0.80;;
30062;SDS011;16889;67.864;24.990;2023-07-30T13:03:00;1.58;;;0.90;;
30062;SDS011;16889;67.864;24.990;2023-07-30T13:07:47;1.43;;;0.83;;
30062;SDS011;16889;67.864;24.990;2023-07-30T13:12:33;1.42;;;0.70;;
30062;SDS011;16889;67.864;24.990;2023-07-30T13:17:20;1.35;;;0.63;;
30062;SDS011;16889;67.864;24.990;2023-07-30T13:22:06;1.10;;;0.70;;
30062;SDS011;16889;67.864;24.990;2023-07-30T13:26:52;0.63;;;0.52;;
30062;SDS011;16889;67.864;24.990;2023-07-30T13:31:38;0.80;;;0.60;;
30062;SDS011;16889;67.864;24.990;2023-07-30T13:36:24;2.28;;;0.50;;
30062;SDS011;16889;67.864;24.990;2023-07-30T13:41:10;1.23;;;0.50;;
30062;SDS011;16889;67.864;24.990;2023-07-30T13:45:56;1.85;;;0.60;;
30062;SDS011;16889;67.864;24.990;2023-07-30T13:50:42;0.98;;;0.60;;
30062;SDS011;16889;67.864;24.990;2023-07-30T13:55:30;1.38;;;0.70;;
30062;SDS011;16889;67.864;24.990;2023-07-30T14:00:16;1.00;;;0.70;;
30062;SDS011;16889;67.864;24.990;2023-07-30T14:05:02;0.60;;;0.60;;
30062;SDS011;16889;67.864;24.990;2023-07-30T14:09:48;1.35;;;0.50;;
30062;SDS011;16889;67.864;24.990;2023-07-30T14:14:34;4.95;;;0.70;;
30062;SDS011;16889;67.864;24.990;2023-07-30T14:19:20;1.23;;;0.60;;
30062;SDS011;16889;67.864;24.990;2023-07-30T14:24:06;3.03;;;0.57;;
30062;SDS011;16889;67.864;24.990;2023-07-30T14:28:52;1.58;;;0.50;;
30062;SDS011;16889;67.864;24.990;2023-07-30T14:33:38;2.53;;;0.60;;
30062;SDS011;16889;67.864;24.990;2023-07-30T14:38:24;4.10;;;0.70;;
30062;SDS011;16889;67.864;24.990;2023-07-30T14:43:10;3.03;;;0.60;;
30062;SDS011;16889;67.864;24.990;2023-07-30T14:47:56;1.75;;;0.70;;
30062;SDS011;16889;67.864;24.990;2023-07-30T14:52:42;1.20;;;0.80;;
30062;SDS011;16889;67.864;24.990;2023-07-30T14:57:28;2.72;;;1.00;;
30062;SDS011;16889;67.864;24.990;2023-07-30T15:02:15;1.13;;;0.70;;
30062;SDS011;16889;67.864;24.990;2023-07-30T15:07:01;1.35;;;0.90;;
30062;SDS011;16889;67.864;24.990;2023-07-30T15:11:47;2.35;;;1.05;;
30062;SDS011;16889;67.864;24.990;2023-07-30T15:16:33;0.90;;;0.80;;
30062;SDS011;16889;67.864;24.990;2023-07-30T15:21:19;1.23;;;0.90;;
30062;SDS011;16889;67.864;24.990;2023-07-30T15:26:05;3.80;;;0.95;;
30062;SDS011;16889;67.864;24.990;2023-07-30T15:30:51;3.53;;;1.17;;
30062;SDS011;16889;67.864;24.990;2023-07-30T15:35:37;1.15;;;0.95;;
30062;SDS011;16889;67.864;24.990;2023-07-30T15:40:23;1.02;;;0.93;;
30062;SDS011;16889;67.864;24.990;2023-07-30T15:45:09;4.97;;;1.25;;
30062;SDS011;16889;67.864;24.990;2023-07-30T15:49:55;2.03;;;1.10;;
30062;SDS011;16889;67.864;24.990;2023-07-30T15:54:41;2.40;;;1.27;;
30062;SDS011;16889;67.864;24.990;2023-07-30T15:59:27;2.83;;;1.02;;
30062;SDS011;16889;67.864;24.990;2023-07-30T16:04:13;1.42;;;1.00;;
30062;SDS011;16889;67.864;24.990;2023-07-30T16:08:59;1.50;;;1.10;;
30062;SDS011;16889;67.864;24.990;2023-07-30T16:13:45;1.30;;;1.00;;
30062;SDS011;16889;67.864;24.990;2023-07-30T16:18:33;2.03;;;1.20;;
30062;SDS011;16889;67.864;24.990;2023-07-30T16:23:19;2.22;;;1.10;;
30062;SDS011;16889;67.864;24.990;2023-07-30T16:28:05;3.10;;;1.30;;
30062;SDS011;16889;67.864;24.990;2023-07-30T16:32:51;1.17;;;1.00;;
30062;SDS011;16889;67.864;24.990;2023-07-30T16:37:37;2.67;;;1.10;;
30062;SDS011;16889;67.864;24.990;2023-07-30T16:42:23;2.55;;;1.20;;
30062;SDS011;16889;67.864;24.990;2023-07-30T16:47:09;1.83;;;1.15;;
30062;SDS011;16889;67.864;24.990;2023-07-30T16:51:55;1.27;;;0.98;;
30062;SDS011;16889;67.864;24.990;2023-07-30T16:56:41;2.55;;;1.05;;
30062;SDS011;16889;67.864;24.990;2023-07-30T17:01:28;1.37;;;1.20;;
30062;SDS011;16889;67.864;24.990;2023-07-30T17:06:14;1.48;;;1.00;;
30062;SDS011;16889;67.864;24.990;2023-07-30T17:11:05;1.47;;;1.07;;
30062;SDS011;16889;67.864;24.990;2023-07-30T17:15:52;4.40;;;1.17;;
30062;SDS011;16889;67.864;24.990;2023-07-30T17:20:38;5.68;;;1.20;;
30062;SDS011;16889;67.864;24.990;2023-07-30T17:25:24;2.25;;;1.13;;
30062;SDS011;16889;67.864;24.990;2023-07-30T17:30:10;4.35;;;1.17;;
30062;SDS011;16889;67.864;24.990;2023-07-30T17:34:56;1.90;;;1.30;;
30062;SDS011;16889;67.864;24.990;2023-07-30T17:39:42;4.28;;;1.40;;
30062;SDS011;16889;67.864;24.990;2023-07-30T17:49:16;2.70;;;1.20;;
30062;SDS011;16889;67.864;24.990;2023-07-30T17:54:02;5.78;;;1.40;;
30062;SDS011;16889;67.864;24.990;2023-07-30T17:58:48;2.47;;;1.33;;
30062;SDS011;16889;67.864;24.990;2023-07-30T18:03:35;3.53;;;1.38;;
30062;SDS011;16889;67.864;24.990;2023-07-30T18:08:21;3.95;;;1.40;;
30062;SDS011;16889;67.864;24.990;2023-07-30T18:13:07;9.70;;;1.80;;
30062;SDS011;16889;67.864;24.990;2023-07-30T18:17:53;5.57;;;1.42;;
30062;SDS011;16889;67.864;24.990;2023-07-30T18:22:39;2.65;;;1.40;;
30062;SDS011;16889;67.864;24.990;2023-07-30T18:27:25;4.63;;;1.42;;
30062;SDS011;16889;67.864;24.990;2023-07-30T18:32:11;2.67;;;1.67;;
30062;SDS011;16889;67.864;24.990;2023-07-30T18:36:57;5.22;;;1.60;;
30062;SDS011;16889;67.864;24.990;2023-07-30T18:41:43;5.50;;;1.70;;
30062;SDS011;16889;67.864;24.990;2023-07-30T18:46:29;2.50;;;1.60;;
30062;SDS011;16889;67.864;24.990;2023-07-30T18:51:15;4.60;;;1.95;;
30062;SDS011;16889;67.864;24.990;2023-07-30T18:56:01;4.32;;;1.60;;
30062;SDS011;16889;67.864;24.990;2023-07-30T19:00:49;2.25;;;1.52;;
30062;SDS011;16889;67.864;24.990;2023-07-30T19:05:35;3.60;;;1.55;;
30062;SDS011;16889;67.864;24.990;2023-07-30T19:10:21;2.97;;;1.40;;
30062;SDS011;16889;67.864;24.990;2023-07-30T19:15:07;1.88;;;1.48;;
30062;SDS011;16889;67.864;24.990;2023-07-30T19:19:53;3.30;;;1.73;;
30062;SDS011;16889;67.864;24.990;2023-07-30T19:24:39;2.47;;;1.88;;
30062;SDS011;16889;67.864;24.990;2023-07-30T19:29:26;2.08;;;1.70;;
30062;SDS011;16889;67.864;24.990;2023-07-30T19:34:14;5.28;;;1.80;;
30062;SDS011;16889;67.864;24.990;2023-07-30T19:39:00;3.47;;;1.80;;
30062;SDS011;16889;67.864;24.990;2023-07-30T19:43:46;3.15;;;1.77;;
30062;SDS011;16889;67.864;24.990;2023-07-30T19:48:32;3.53;;;2.10;;
30062;SDS011;16889;67.864;24.990;2023-07-30T19:53:18;3.20;;;1.65;;
30062;SDS011;16889;67.864;24.990;2023-07-30T19:58:20;2.72;;;1.80;;
30062;SDS011;16889;67.864;24.990;2023-07-30T20:03:14;2.78;;;1.90;;
30062;SDS011;16889;67.864;24.990;2023-07-30T20:08:00;3.20;;;2.00;;
30062;SDS011;16889;67.864;24.990;2023-07-30T20:12:46;5.00;;;2.53;;
30062;SDS011;16889;67.864;24.990;2023-07-30T20:17:32;3.35;;;2.45;;
30062;SDS011;16889;67.864;24.990;2023-07-30T20:22:18;3.33;;;2.35;;
30062;SDS011;16889;67.864;24.990;2023-07-30T20:27:03;3.17;;;1.88;;
30062;SDS011;16889;67.864;24.990;2023-07-30T20:31:49;3.75;;;2.00;;
30062;SDS011;16889;67.864;24.990;2023-07-30T20:36:35;3.58;;;1.80;;
30062;SDS011;16889;67.864;24.990;2023-07-30T20:41:21;3.28;;;2.10;;
30062;SDS011;16889;67.864;24.990;2023-07-30T20:46:11;11.10;;;2.28;;
30062;SDS011;16889;67.864;24.990;2023-07-30T20:50:58;2.30;;;1.75;;
30062;SDS011;16889;67.864;24.990;2023-07-30T20:55:44;5.55;;;2.35;;
30062;SDS011;16889;67.864;24.990;2023-07-30T21:00:30;3.92;;;2.40;;
30062;SDS011;16889;67.864;24.990;2023-07-30T21:05:16;2.35;;;1.90;;
30062;SDS011;16889;67.864;24.990;2023-07-30T21:10:02;3.15;;;1.63;;
30062;SDS011;16889;67.864;24.990;2023-07-30T21:14:48;3.50;;;2.28;;
30062;SDS011;16889;67.864;24.990;2023-07-30T21:19:34;7.97;;;2.75;;
30062;SDS011;16889;67.864;24.990;2023-07-30T21:24:20;3.08;;;2.03;;
30062;SDS011;16889;67.864;24.990;2023-07-30T21:29:06;3.58;;;2.00;;
30062;SDS011;16889;67.864;24.990;2023-07-30T21:33:52;2.80;;;2.40;;
30062;SDS011;16889;67.864;24.990;2023-07-30T21:38:38;6.88;;;2.63;;
30062;SDS011;16889;67.864;24.990;2023-07-30T21:43:24;4.10;;;2.60;;
30062;SDS011;16889;67.864;24.990;2023-07-30T21:48:10;10.20;;;2.30;;
30062;SDS011;16889;67.864;24.990;2023-07-30T21:52:56;3.35;;;2.25;;
30062;SDS011;16889;67.864;24.990;2023-07-30T21:57:42;5.47;;;2.30;;
30062;SDS011;16889;67.864;24.990;2023-07-30T22:07:16;3.75;;;2.40;;
30062;SDS011;16889;67.864;24.990;2023-07-30T22:12:02;7.05;;;3.20;;
30062;SDS011;16889;67.864;24.990;2023-07-30T22:16:48;2.88;;;2.60;;
30062;SDS011;16889;67.864;24.990;2023-07-30T22:21:34;3.83;;;2.83;;
30062;SDS011;16889;67.864;24.990;2023-07-30T22:26:20;4.00;;;2.53;;
30062;SDS011;16889;67.864;24.990;2023-07-30T22:31:06;3.92;;;2.92;;
30062;SDS011;16889;67.864;24.990;2023-07-30T22:35:53;5.85;;;3.13;;
30062;SDS011;16889;67.864;24.990;2023-07-30T22:40:41;5.07;;;2.97;;
30062;SDS011;16889;67.864;24.990;2023-07-30T22:45:27;6.03;;;2.88;;
30062;SDS011;16889;67.864;24.990;2023-07-30T22:50:13;4.53;;;2.85;;
30062;SDS011;16889;67.864;24.990;2023-07-30T22:54:59;6.22;;;2.78;;
30062;SDS011;16889;67.864;24.990;2023-07-30T22:59:45;2.90;;;2.40;;
30062;SDS011;16889;67.864;24.990;2023-07-30T23:04:31;5.63;;;2.30;;
30062;SDS011;16889;67.864;24.990;2023-07-30T23:09:17;3.00;;;2.20;;
30062;SDS011;16889;67.864;24.990;2023-07-30T23:14:06;4.07;;;3.25;;
30062;SDS011;16889;67.864;24.990;2023-07-30T23:18:52;3.67;;;3.15;;
30062;SDS011;16889;67.864;24.990;2023-07-30T23:23:38;5.60;;;4.22;;
30062;SDS011;16889;67.864;24.990;2023-07-30T23:28:24;4.72;;;2.92;;
30062;SDS011;16889;67.864;24.990;2023-07-30T23:33:10;8.82;;;3.45;;
30062;SDS011;16889;67.864;24.990;2023-07-30T23:37:56;9.00;;;3.50;;
30062;SDS011;16889;67.864;24.990;2023-07-30T23:42:42;6.72;;;4.18;;
30062;SDS011;16889;67.864;24.990;2023-07-30T23:47:27;6.05;;;4.43;;
30062;SDS011;16889;67.864;24.990;2023-07-30T23:52:14;4.55;;;3.58;;
30062;SDS011;16889;67.864;24.990;2023-07-30T23:57:00;7.95;;;3.80;;
